メインページ
METAR-TAF:

METAR-TAF

空港 :

Port Hardy, ブリティッシュコロンビア州, カナダ

緯度: 50-41N, 経度: 127-22W, 海抜: 22m

現時点の気象観測

当レポートは1時間17分前の02:00(UTC)に作成
西/北西の風 7kt、最大15ktの突風を伴う
気温 16°C
湿度 72%
気圧 1027 hPa
視程: 19.3km
高度4000ftの雲はほとんどない
高度18000ftの雲はほとんどない
高度24000ftの千切れ雲あり

METAR: CYZT 250200Z 29007G15KT 12SM FEW040 FEW180 BKN240 16/11 A3032 RMK CU1AC1CI5 SLP270

時間: 20:17 (03:17 UTC)

予報

当レポートは2時間39分前の00:38(UTC)に作成
予報は25日の 01時(UTC)から 25日の 13時(UTC)まで有効
北西の風 6kt
視程: 10km
高度4000ftの雲はほとんどない
高度24000ftの千切れ雲あり
25日の 0800時(UTC)から
変向風 3kt
視程: 10km
高度1500ftの雲は散在している
25日の 08時(UTC)から 25日の 13時(UTC)まで一時的に
高度800ftの雲は散在している
高度1500ftの千切れ雲あり

TAF: CYZT 250038Z 2501/2513 31006KT P6SM FEW040 BKN240 FM250800 VRB03KT P6SM SCT015 TEMPO 2508/2513 SCT008 BKN015 RMK NXT FCST BY 250700Z

4,000以上の空港の気象観測と天気予報(METAR報とTAF報)

利用可能な観測所は地図上に黄色い丸と赤い丸で示す。

丸の上にカーソルを重ねると観測所名を参照できる。

次にクリックすると気象観測と天気予報を参照できる。

マップの切り替え:黒色「×」印の緑ボタンをクリックして拡大、「-」印の緑ボタンをクリックして縮小、緑色の三角印をクリックして隣りの地図に切り替え


METAR-TAF: